WJA3260 KBOS-CYYZ
Flight info
| Callsign | WJA3260 |
|---|---|
| Flight time | 1h 19m |
| Altitude | 36000 |
| Route | HYLND7 HYLND DCT CAM Q822 GONZZ DCT WOZEE LINNG3 |
| Aircraft | B738/M-SDE2E3FGHIRWXY/LB1 |
Departure
| Time | 2026-05-08 01:48 |
|---|---|
| Airport | Boston Logan International Airport (KBOS) |
Arrival
| Time | 2026-05-08 03:08 |
|---|---|
| Airport | Toronto Pearson International Airport (CYYZ) |
| Time | Latitude | Longitude | Altitude | Speed | Heading |
|---|---|---|---|---|---|
| 2026-05-08 01:12 | 42.37074 | -71.01863 | 16 ft | 0 kts | 211° |
| 2026-05-08 01:33 | 42.37084 | -71.01855 | 16 ft | 2 kts | 211° |
| 2026-05-08 01:34 | 42.37097 | -71.01844 | 16 ft | 2 kts | 211° |
| 2026-05-08 01:34 | 42.37110 | -71.01833 | 16 ft | 2 kts | 211° |
| 2026-05-08 01:34 | 42.37118 | -71.01826 | 16 ft | 2 kts | 212° |
| 2026-05-08 01:34 | 42.37132 | -71.01819 | 16 ft | 2 kts | 185° |
| 2026-05-08 01:35 | 42.37146 | -71.01820 | 16 ft | 2 kts | 165° |
| 2026-05-08 01:35 | 42.37160 | -71.01828 | 16 ft | 2 kts | 143° |
| 2026-05-08 01:35 | 42.37168 | -71.01839 | 16 ft | 0 kts | 125° |
| 2026-05-08 01:35 | 42.37172 | -71.01848 | 16 ft | 0 kts | 122° |
| 2026-05-08 01:38 | 42.37163 | -71.01829 | 16 ft | 7 kts | 123° |
| 2026-05-08 01:38 | 42.37136 | -71.01769 | 16 ft | 7 kts | 111° |
| 2026-05-08 01:38 | 42.37142 | -71.01686 | 16 ft | 9 kts | 75° |
| 2026-05-08 01:38 | 42.37135 | -71.01609 | 16 ft | 8 kts | 126° |
| 2026-05-08 01:39 | 42.37093 | -71.01549 | 16 ft | 10 kts | 135° |
| 2026-05-08 01:39 | 42.37035 | -71.01472 | 16 ft | 12 kts | 135° |
| 2026-05-08 01:39 | 42.36965 | -71.01378 | 16 ft | 15 kts | 135° |
| 2026-05-08 01:39 | 42.36883 | -71.01268 | 16 ft | 17 kts | 135° |
| 2026-05-08 01:40 | 42.36792 | -71.01152 | 16 ft | 17 kts | 149° |
| 2026-05-08 01:40 | 42.36678 | -71.01165 | 17 ft | 16 kts | 201° |
| 2026-05-08 01:40 | 42.36567 | -71.01219 | 17 ft | 16 kts | 199° |
| 2026-05-08 01:40 | 42.36460 | -71.01271 | 17 ft | 15 kts | 200° |
| 2026-05-08 01:41 | 42.36365 | -71.01316 | 18 ft | 12 kts | 191° |
| 2026-05-08 01:41 | 42.36308 | -71.01254 | 18 ft | 13 kts | 122° |
| 2026-05-08 01:41 | 42.36250 | -71.01115 | 18 ft | 18 kts | 115° |
| 2026-05-08 01:41 | 42.36200 | -71.00964 | 18 ft | 16 kts | 114° |
| 2026-05-08 01:42 | 42.36163 | -71.00852 | 17 ft | 10 kts | 114° |
| 2026-05-08 01:42 | 42.36125 | -71.00731 | 17 ft | 19 kts | 110° |
| 2026-05-08 01:42 | 42.36080 | -71.00558 | 16 ft | 19 kts | 109° |
| 2026-05-08 01:42 | 42.36038 | -71.00389 | 16 ft | 18 kts | 109° |
| 2026-05-08 01:43 | 42.35996 | -71.00225 | 15 ft | 18 kts | 109° |
| 2026-05-08 01:43 | 42.35947 | -71.00073 | 15 ft | 17 kts | 125° |
| 2026-05-08 01:43 | 42.35868 | -70.99957 | 14 ft | 16 kts | 135° |
| 2026-05-08 01:43 | 42.35785 | -70.99848 | 14 ft | 17 kts | 136° |
| 2026-05-08 01:44 | 42.35691 | -70.99723 | 14 ft | 19 kts | 135° |
| 2026-05-08 01:44 | 42.35592 | -70.99590 | 14 ft | 19 kts | 135° |
| 2026-05-08 01:44 | 42.35500 | -70.99466 | 14 ft | 15 kts | 129° |
| 2026-05-08 01:44 | 42.35489 | -70.99390 | 14 ft | 1 kts | 78° |
| 2026-05-08 01:45 | 42.35491 | -70.99377 | 14 ft | 0 kts | 77° |
| 2026-05-08 01:45 | 42.35496 | -70.99348 | 14 ft | 6 kts | 77° |
| 2026-05-08 01:46 | 42.35527 | -70.99282 | 14 ft | 9 kts | 20° |
| 2026-05-08 01:46 | 42.35572 | -70.99304 | 14 ft | 0 kts | 317° |
| 2026-05-08 01:48 | 42.35933 | -70.99788 | 14 ft | 107 kts | 315° |
| 2026-05-08 01:48 | 42.36631 | -71.00723 | 89 ft | 168 kts | 314° |
| 2026-05-08 01:48 | 42.37430 | -71.01773 | 1204 ft | 156 kts | 315° |
| 2026-05-08 01:48 | 42.38135 | -71.02689 | 2158 ft | 143 kts | 315° |
| 2026-05-08 01:49 | 42.38765 | -71.03823 | 2483 ft | 160 kts | 300° |
| 2026-05-08 01:49 | 42.39308 | -71.05203 | 2878 ft | 172 kts | 300° |
| 2026-05-08 01:49 | 42.39914 | -71.06677 | 3248 ft | 187 kts | 301° |
| 2026-05-08 01:49 | 42.40583 | -71.08246 | 3616 ft | 203 kts | 301° |
| 2026-05-08 01:50 | 42.41457 | -71.09851 | 4006 ft | 218 kts | 317° |
| 2026-05-08 01:50 | 42.42783 | -71.10914 | 4395 ft | 236 kts | 336° |
| 2026-05-08 01:50 | 42.44373 | -71.11687 | 4855 ft | 249 kts | 339° |
| 2026-05-08 01:50 | 42.46060 | -71.12504 | 5394 ft | 259 kts | 338° |
| 2026-05-08 01:51 | 42.47735 | -71.13378 | 6130 ft | 260 kts | 337° |
| 2026-05-08 01:51 | 42.49425 | -71.14298 | 6834 ft | 264 kts | 336° |
| 2026-05-08 01:51 | 42.51104 | -71.15218 | 7592 ft | 265 kts | 336° |
| 2026-05-08 01:51 | 42.52850 | -71.16084 | 8283 ft | 270 kts | 338° |
| 2026-05-08 01:52 | 42.54630 | -71.16882 | 9045 ft | 272 kts | 338° |
| 2026-05-08 01:52 | 42.56425 | -71.17670 | 9788 ft | 274 kts | 337° |
| 2026-05-08 01:52 | 42.58243 | -71.18479 | 10426 ft | 281 kts | 337° |
| 2026-05-08 01:52 | 42.60161 | -71.19352 | 10822 ft | 297 kts | 336° |
| 2026-05-08 01:53 | 42.62161 | -71.20270 | 11238 ft | 312 kts | 336° |
| 2026-05-08 01:53 | 42.64272 | -71.21238 | 11613 ft | 329 kts | 336° |
| 2026-05-08 01:53 | 42.66450 | -71.22231 | 12258 ft | 335 kts | 336° |
| 2026-05-08 01:53 | 42.68660 | -71.23232 | 12976 ft | 340 kts | 335° |
| 2026-05-08 01:54 | 42.70927 | -71.24262 | 13705 ft | 344 kts | 335° |
| 2026-05-08 01:54 | 42.73161 | -71.25375 | 14406 ft | 346 kts | 330° |
| 2026-05-08 01:54 | 42.75246 | -71.26977 | 15082 ft | 341 kts | 315° |
| 2026-05-08 01:54 | 42.76870 | -71.29226 | 15720 ft | 336 kts | 300° |
| 2026-05-08 01:55 | 42.78043 | -71.31925 | 16477 ft | 331 kts | 290° |
| 2026-05-08 01:55 | 42.78910 | -71.34809 | 17226 ft | 328 kts | 281° |
| 2026-05-08 01:55 | 42.79404 | -71.37772 | 17875 ft | 327 kts | 274° |
| 2026-05-08 01:55 | 42.79716 | -71.40828 | 18588 ft | 328 kts | 272° |
| 2026-05-08 01:56 | 42.79996 | -71.43909 | 19341 ft | 328 kts | 271° |
| 2026-05-08 01:56 | 42.80293 | -71.46987 | 19973 ft | 332 kts | 272° |
| 2026-05-08 01:56 | 42.80615 | -71.50101 | 20579 ft | 336 kts | 271° |
| 2026-05-08 01:56 | 42.80951 | -71.53238 | 21175 ft | 339 kts | 272° |
| 2026-05-08 01:57 | 42.81296 | -71.56387 | 21858 ft | 339 kts | 272° |
| 2026-05-08 01:57 | 42.81647 | -71.59594 | 22403 ft | 343 kts | 272° |
| 2026-05-08 01:57 | 42.81997 | -71.62783 | 22936 ft | 345 kts | 272° |
| 2026-05-08 01:57 | 42.82350 | -71.66013 | 23483 ft | 348 kts | 271° |
| 2026-05-08 01:58 | 42.82703 | -71.69244 | 24057 ft | 349 kts | 271° |
| 2026-05-08 01:58 | 42.83058 | -71.72523 | 24573 ft | 352 kts | 271° |
| 2026-05-08 01:58 | 42.83417 | -71.75833 | 25087 ft | 355 kts | 271° |
| 2026-05-08 01:58 | 42.83777 | -71.79153 | 25724 ft | 354 kts | 271° |
| 2026-05-08 01:59 | 42.84135 | -71.82464 | 26220 ft | 357 kts | 271° |
| 2026-05-08 01:59 | 42.84493 | -71.85799 | 26753 ft | 358 kts | 271° |
| 2026-05-08 01:59 | 42.84854 | -71.89173 | 27238 ft | 360 kts | 271° |
| 2026-05-08 01:59 | 42.85213 | -71.92542 | 27686 ft | 362 kts | 271° |
| 2026-05-08 02:00 | 42.85569 | -71.95890 | 28099 ft | 365 kts | 271° |
| 2026-05-08 02:00 | 42.85934 | -71.99343 | 28536 ft | 367 kts | 271° |
| 2026-05-08 02:00 | 42.86295 | -72.02753 | 28998 ft | 368 kts | 271° |
| 2026-05-08 02:00 | 42.86663 | -72.06243 | 29413 ft | 370 kts | 271° |
| 2026-05-08 02:01 | 42.87027 | -72.09695 | 29808 ft | 373 kts | 271° |
| 2026-05-08 02:01 | 42.87394 | -72.13179 | 30233 ft | 374 kts | 271° |
| 2026-05-08 02:01 | 42.87763 | -72.16702 | 30597 ft | 376 kts | 271° |
| 2026-05-08 02:01 | 42.88128 | -72.20218 | 30880 ft | 380 kts | 271° |
| 2026-05-08 02:02 | 42.88501 | -72.23817 | 31253 ft | 381 kts | 271° |
| 2026-05-08 02:02 | 42.88872 | -72.27381 | 31710 ft | 380 kts | 271° |
| 2026-05-08 02:02 | 42.89238 | -72.30907 | 32152 ft | 379 kts | 271° |
| 2026-05-08 02:02 | 42.89606 | -72.34457 | 32556 ft | 378 kts | 271° |
| 2026-05-08 02:03 | 42.89971 | -72.38020 | 32792 ft | 381 kts | 272° |
| 2026-05-08 02:03 | 42.90333 | -72.41558 | 33105 ft | 381 kts | 271° |
| 2026-05-08 02:03 | 42.90699 | -72.45153 | 33411 ft | 381 kts | 272° |
| 2026-05-08 02:03 | 42.91063 | -72.48721 | 33696 ft | 382 kts | 271° |
| 2026-05-08 02:04 | 42.91428 | -72.52321 | 33921 ft | 384 kts | 272° |
| 2026-05-08 02:04 | 42.91790 | -72.55896 | 34277 ft | 382 kts | 272° |
| 2026-05-08 02:04 | 42.92152 | -72.59470 | 34643 ft | 379 kts | 272° |
| 2026-05-08 02:04 | 42.92511 | -72.63030 | 34898 ft | 380 kts | 272° |
| 2026-05-08 02:05 | 42.92870 | -72.66621 | 35129 ft | 381 kts | 271° |
| 2026-05-08 02:05 | 42.93225 | -72.70188 | 35394 ft | 381 kts | 271° |
| 2026-05-08 02:05 | 42.93582 | -72.73769 | 35719 ft | 380 kts | 271° |
| 2026-05-08 02:05 | 42.93934 | -72.77322 | 35958 ft | 380 kts | 271° |
| 2026-05-08 02:06 | 42.94641 | -72.84502 | 35928 ft | 384 kts | 271° |
| 2026-05-08 02:06 | 42.95342 | -72.91663 | 35856 ft | 380 kts | 272° |
| 2026-05-08 02:07 | 42.96039 | -72.98802 | 35850 ft | 383 kts | 271° |
| 2026-05-08 02:07 | 42.96731 | -73.05959 | 35858 ft | 382 kts | 272° |
| 2026-05-08 02:08 | 42.97419 | -73.13097 | 35866 ft | 380 kts | 272° |
| 2026-05-08 02:08 | 42.98102 | -73.20270 | 35871 ft | 381 kts | 272° |
| 2026-05-08 02:09 | 42.98779 | -73.27414 | 35870 ft | 381 kts | 272° |
| 2026-05-08 02:09 | 42.99452 | -73.34607 | 35869 ft | 383 kts | 271° |
| 2026-05-08 02:10 | 42.99769 | -73.41779 | 35869 ft | 378 kts | 267° |
| 2026-05-08 02:10 | 42.99871 | -73.48950 | 35871 ft | 380 kts | 267° |
| 2026-05-08 02:11 | 42.99992 | -73.56174 | 35881 ft | 381 kts | 268° |
| 2026-05-08 02:11 | 43.00140 | -73.63367 | 35885 ft | 381 kts | 268° |
| 2026-05-08 02:12 | 43.00303 | -73.70615 | 35897 ft | 382 kts | 267° |
| 2026-05-08 02:12 | 43.00464 | -73.77811 | 35887 ft | 381 kts | 267° |
| 2026-05-08 02:13 | 43.00621 | -73.85066 | 35883 ft | 381 kts | 267° |
| 2026-05-08 02:13 | 43.00772 | -73.92322 | 35890 ft | 384 kts | 268° |
| 2026-05-08 02:14 | 43.00918 | -73.99538 | 35901 ft | 383 kts | 268° |
| 2026-05-08 02:14 | 43.01061 | -74.06776 | 35891 ft | 383 kts | 268° |
| 2026-05-08 02:15 | 43.01200 | -74.14043 | 35885 ft | 385 kts | 268° |
| 2026-05-08 02:15 | 43.01332 | -74.21316 | 35887 ft | 386 kts | 268° |
| 2026-05-08 02:16 | 43.01497 | -74.28658 | 35889 ft | 387 kts | 269° |
| 2026-05-08 02:16 | 43.01829 | -74.36012 | 35886 ft | 387 kts | 270° |
| 2026-05-08 02:17 | 43.02190 | -74.43315 | 35882 ft | 386 kts | 270° |
| 2026-05-08 02:17 | 43.02532 | -74.50612 | 35886 ft | 388 kts | 270° |
| 2026-05-08 02:18 | 43.02863 | -74.57997 | 35901 ft | 389 kts | 270° |
| 2026-05-08 02:18 | 43.03183 | -74.65385 | 35900 ft | 390 kts | 270° |
| 2026-05-08 02:19 | 43.03497 | -74.72797 | 35902 ft | 390 kts | 270° |
| 2026-05-08 02:19 | 43.03805 | -74.80205 | 35913 ft | 392 kts | 269° |
| 2026-05-08 02:20 | 43.04111 | -74.87620 | 35915 ft | 392 kts | 269° |
| 2026-05-08 02:20 | 43.04411 | -74.95011 | 35903 ft | 393 kts | 269° |
| 2026-05-08 02:21 | 43.04711 | -75.02532 | 35911 ft | 393 kts | 270° |
| 2026-05-08 02:21 | 43.05000 | -75.09923 | 35904 ft | 393 kts | 270° |
| 2026-05-08 02:22 | 43.05288 | -75.17381 | 35900 ft | 394 kts | 270° |
| 2026-05-08 02:22 | 43.05568 | -75.24805 | 35902 ft | 394 kts | 270° |
| 2026-05-08 02:23 | 43.05839 | -75.32250 | 35904 ft | 394 kts | 270° |
| 2026-05-08 02:23 | 43.06057 | -75.39744 | 35905 ft | 393 kts | 269° |
| 2026-05-08 02:24 | 43.06253 | -75.47176 | 35905 ft | 393 kts | 269° |
| 2026-05-08 02:24 | 43.06449 | -75.54629 | 35905 ft | 393 kts | 270° |
| 2026-05-08 02:25 | 43.06644 | -75.62072 | 35901 ft | 394 kts | 270° |
| 2026-05-08 02:25 | 43.06836 | -75.69507 | 35892 ft | 393 kts | 269° |
| 2026-05-08 02:26 | 43.07026 | -75.76985 | 35892 ft | 395 kts | 269° |
| 2026-05-08 02:26 | 43.07211 | -75.84480 | 35900 ft | 395 kts | 269° |
| 2026-05-08 02:27 | 43.07389 | -75.91924 | 35907 ft | 395 kts | 269° |
| 2026-05-08 02:27 | 43.07567 | -75.99519 | 35912 ft | 396 kts | 269° |
| 2026-05-08 02:28 | 43.07736 | -76.07007 | 35913 ft | 396 kts | 269° |
| 2026-05-08 02:28 | 43.07901 | -76.14459 | 35910 ft | 396 kts | 270° |
| 2026-05-08 02:29 | 43.08061 | -76.22020 | 35887 ft | 395 kts | 270° |
| 2026-05-08 02:29 | 43.08140 | -76.25738 | 35555 ft | 391 kts | 270° |
| 2026-05-08 02:29 | 43.08216 | -76.29408 | 34859 ft | 394 kts | 270° |
| 2026-05-08 02:30 | 43.08291 | -76.33165 | 34190 ft | 395 kts | 270° |
| 2026-05-08 02:30 | 43.08365 | -76.36910 | 33596 ft | 394 kts | 270° |
| 2026-05-08 02:30 | 43.08438 | -76.40646 | 32943 ft | 395 kts | 270° |
| 2026-05-08 02:30 | 43.08509 | -76.44417 | 32336 ft | 395 kts | 270° |
| 2026-05-08 02:31 | 43.08579 | -76.48086 | 32032 ft | 387 kts | 270° |
| 2026-05-08 02:31 | 43.08648 | -76.51711 | 31930 ft | 378 kts | 270° |
| 2026-05-08 02:31 | 43.08779 | -76.58933 | 31916 ft | 385 kts | 270° |
| 2026-05-08 02:32 | 43.08908 | -76.66248 | 31915 ft | 385 kts | 270° |
| 2026-05-08 02:32 | 43.08772 | -76.73649 | 31921 ft | 384 kts | 265° |
| 2026-05-08 02:33 | 43.08229 | -76.80960 | 31929 ft | 385 kts | 264° |
| 2026-05-08 02:33 | 43.07664 | -76.88254 | 31916 ft | 385 kts | 264° |
| 2026-05-08 02:34 | 43.07139 | -76.95454 | 31937 ft | 385 kts | 264° |
| 2026-05-08 02:34 | 43.06619 | -77.02782 | 31931 ft | 386 kts | 264° |
| 2026-05-08 02:35 | 43.06105 | -77.10086 | 31930 ft | 385 kts | 264° |
| 2026-05-08 02:35 | 43.05592 | -77.17326 | 31931 ft | 385 kts | 264° |
| 2026-05-08 02:36 | 43.05074 | -77.24592 | 31923 ft | 384 kts | 264° |
| 2026-05-08 02:36 | 43.04549 | -77.31879 | 31930 ft | 385 kts | 265° |
| 2026-05-08 02:37 | 43.04021 | -77.39142 | 31931 ft | 384 kts | 265° |
| 2026-05-08 02:37 | 43.03486 | -77.46426 | 31931 ft | 386 kts | 265° |
| 2026-05-08 02:38 | 43.02949 | -77.53688 | 31936 ft | 384 kts | 265° |
| 2026-05-08 02:38 | 43.02404 | -77.61011 | 31939 ft | 383 kts | 265° |
| 2026-05-08 02:39 | 43.01855 | -77.68299 | 31936 ft | 383 kts | 264° |
| 2026-05-08 02:39 | 43.01300 | -77.75600 | 31936 ft | 385 kts | 264° |
| 2026-05-08 02:40 | 43.00744 | -77.82860 | 31938 ft | 383 kts | 264° |
| 2026-05-08 02:40 | 43.00185 | -77.90098 | 31933 ft | 385 kts | 264° |
| 2026-05-08 02:41 | 42.99617 | -77.97400 | 31933 ft | 384 kts | 264° |
| 2026-05-08 02:41 | 42.99048 | -78.04642 | 31937 ft | 383 kts | 264° |
| 2026-05-08 02:42 | 42.98474 | -78.11905 | 31937 ft | 384 kts | 265° |
| 2026-05-08 02:42 | 42.97896 | -78.19151 | 31935 ft | 384 kts | 264° |
| 2026-05-08 02:43 | 42.97312 | -78.26413 | 31935 ft | 384 kts | 265° |
| 2026-05-08 02:43 | 42.96721 | -78.33689 | 31893 ft | 383 kts | 265° |
| 2026-05-08 02:44 | 42.96426 | -78.37303 | 31549 ft | 381 kts | 265° |
| 2026-05-08 02:44 | 42.96134 | -78.40879 | 30911 ft | 384 kts | 265° |
| 2026-05-08 02:44 | 42.95835 | -78.44508 | 30403 ft | 381 kts | 265° |
| 2026-05-08 02:44 | 42.95544 | -78.48032 | 29979 ft | 376 kts | 265° |
| 2026-05-08 02:45 | 42.95252 | -78.51554 | 29447 ft | 376 kts | 265° |
| 2026-05-08 02:45 | 42.94954 | -78.55141 | 28866 ft | 376 kts | 265° |
| 2026-05-08 02:45 | 42.94659 | -78.58678 | 28372 ft | 374 kts | 265° |
| 2026-05-08 02:45 | 42.94367 | -78.62155 | 27834 ft | 373 kts | 265° |
| 2026-05-08 02:46 | 42.94100 | -78.65670 | 27318 ft | 370 kts | 267° |
| 2026-05-08 02:46 | 42.94067 | -78.69241 | 26743 ft | 370 kts | 275° |
| 2026-05-08 02:46 | 42.94517 | -78.72692 | 26181 ft | 369 kts | 285° |
| 2026-05-08 02:46 | 42.95411 | -78.75906 | 25690 ft | 366 kts | 294° |
| 2026-05-08 02:47 | 42.96585 | -78.78981 | 25216 ft | 362 kts | 299° |
| 2026-05-08 02:47 | 42.97975 | -78.81807 | 24625 ft | 362 kts | 305° |
| 2026-05-08 02:47 | 42.99539 | -78.84489 | 23896 ft | 360 kts | 308° |
| 2026-05-08 02:47 | 43.01144 | -78.87074 | 23132 ft | 355 kts | 309° |
| 2026-05-08 02:48 | 43.02735 | -78.89603 | 22336 ft | 351 kts | 309° |
| 2026-05-08 02:48 | 43.04311 | -78.92127 | 21558 ft | 347 kts | 308° |
| 2026-05-08 02:48 | 43.05866 | -78.94648 | 20756 ft | 343 kts | 308° |
| 2026-05-08 02:48 | 43.07371 | -78.97113 | 19969 ft | 340 kts | 308° |
| 2026-05-08 02:49 | 43.08861 | -78.99571 | 19228 ft | 335 kts | 308° |
| 2026-05-08 02:49 | 43.10346 | -79.02035 | 18433 ft | 333 kts | 308° |
| 2026-05-08 02:49 | 43.11805 | -79.04464 | 17683 ft | 329 kts | 308° |
| 2026-05-08 02:49 | 43.13244 | -79.06869 | 17090 ft | 322 kts | 307° |
| 2026-05-08 02:50 | 43.14613 | -79.09160 | 16884 ft | 324 kts | 307° |
| 2026-05-08 02:50 | 43.16060 | -79.11585 | 16546 ft | 327 kts | 307° |
| 2026-05-08 02:50 | 43.17486 | -79.13972 | 16067 ft | 324 kts | 307° |
| 2026-05-08 02:50 | 43.18757 | -79.16099 | 15621 ft | 322 kts | 307° |
| 2026-05-08 02:51 | 43.20068 | -79.18295 | 15139 ft | 319 kts | 307° |
| 2026-05-08 02:51 | 43.21554 | -79.20782 | 14605 ft | 317 kts | 308° |
| 2026-05-08 02:51 | 43.22943 | -79.23097 | 14101 ft | 315 kts | 307° |
| 2026-05-08 02:51 | 43.24335 | -79.25428 | 13602 ft | 312 kts | 307° |
| 2026-05-08 02:52 | 43.25698 | -79.27721 | 13106 ft | 311 kts | 307° |
| 2026-05-08 02:52 | 43.27064 | -79.30021 | 12622 ft | 309 kts | 307° |
| 2026-05-08 02:52 | 43.28404 | -79.32279 | 12134 ft | 307 kts | 307° |
| 2026-05-08 02:52 | 43.29785 | -79.34532 | 11602 ft | 306 kts | 311° |
| 2026-05-08 02:53 | 43.31419 | -79.36403 | 11224 ft | 305 kts | 325° |
| 2026-05-08 02:53 | 43.33303 | -79.37712 | 11023 ft | 297 kts | 332° |
| 2026-05-08 02:53 | 43.35157 | -79.38786 | 10922 ft | 285 kts | 333° |
| 2026-05-08 02:53 | 43.36969 | -79.39834 | 10629 ft | 280 kts | 332° |
| 2026-05-08 02:54 | 43.38760 | -79.40920 | 10212 ft | 278 kts | 332° |
| 2026-05-08 02:54 | 43.40488 | -79.42009 | 9945 ft | 272 kts | 331° |
| 2026-05-08 02:54 | 43.42166 | -79.43085 | 9752 ft | 264 kts | 331° |
| 2026-05-08 02:54 | 43.43825 | -79.44157 | 9355 ft | 264 kts | 331° |
| 2026-05-08 02:55 | 43.45473 | -79.45221 | 9023 ft | 261 kts | 331° |
| 2026-05-08 02:55 | 43.48730 | -79.47322 | 8392 ft | 254 kts | 331° |
| 2026-05-08 02:55 | 43.50320 | -79.48348 | 8212 ft | 246 kts | 331° |
| 2026-05-08 02:56 | 43.51830 | -79.49320 | 8139 ft | 235 kts | 331° |
| 2026-05-08 02:56 | 43.53269 | -79.50248 | 8066 ft | 225 kts | 331° |
| 2026-05-08 02:56 | 43.54664 | -79.51150 | 7990 ft | 216 kts | 330° |
| 2026-05-08 02:56 | 43.56016 | -79.52022 | 7992 ft | 216 kts | 330° |
| 2026-05-08 02:57 | 43.57402 | -79.52902 | 7990 ft | 217 kts | 333° |
| 2026-05-08 02:57 | 43.58878 | -79.53406 | 7986 ft | 226 kts | 355° |
| 2026-05-08 02:57 | 43.60424 | -79.52881 | 7988 ft | 238 kts | 24° |
| 2026-05-08 02:57 | 43.61742 | -79.51434 | 7992 ft | 245 kts | 41° |
| 2026-05-08 02:58 | 43.62909 | -79.49720 | 7987 ft | 245 kts | 43° |
| 2026-05-08 02:58 | 43.64081 | -79.47986 | 7985 ft | 245 kts | 43° |
| 2026-05-08 02:58 | 43.65244 | -79.46283 | 7985 ft | 245 kts | 42° |
| 2026-05-08 02:58 | 43.66415 | -79.44576 | 7985 ft | 244 kts | 43° |
| 2026-05-08 02:59 | 43.67577 | -79.42879 | 7984 ft | 244 kts | 43° |
| 2026-05-08 02:59 | 43.68736 | -79.41183 | 7984 ft | 244 kts | 43° |
| 2026-05-08 02:59 | 43.69905 | -79.39475 | 7983 ft | 244 kts | 42° |
| 2026-05-08 02:59 | 43.71067 | -79.37778 | 7985 ft | 244 kts | 42° |
| 2026-05-08 03:00 | 43.72237 | -79.36066 | 7857 ft | 242 kts | 42° |
| 2026-05-08 03:00 | 43.73389 | -79.34380 | 7566 ft | 242 kts | 42° |
| 2026-05-08 03:00 | 43.74536 | -79.32703 | 7288 ft | 241 kts | 42° |
| 2026-05-08 03:00 | 43.75684 | -79.31020 | 6929 ft | 244 kts | 43° |
| 2026-05-08 03:01 | 43.76861 | -79.29298 | 6613 ft | 245 kts | 41° |
| 2026-05-08 03:01 | 43.78157 | -79.27808 | 6344 ft | 238 kts | 24° |
| 2026-05-08 03:01 | 43.79673 | -79.27282 | 6110 ft | 223 kts | 352° |
| 2026-05-08 03:01 | 43.81156 | -79.27791 | 5856 ft | 214 kts | 333° |
| 2026-05-08 03:02 | 43.82407 | -79.28806 | 5600 ft | 209 kts | 317° |
| 2026-05-08 03:02 | 43.83241 | -79.30310 | 5382 ft | 202 kts | 292° |
| 2026-05-08 03:02 | 43.83588 | -79.32189 | 5161 ft | 206 kts | 277° |
| 2026-05-08 03:02 | 43.83530 | -79.34190 | 4925 ft | 210 kts | 258° |
| 2026-05-08 03:03 | 43.83093 | -79.36114 | 4704 ft | 210 kts | 251° |
| 2026-05-08 03:03 | 43.82408 | -79.37900 | 4501 ft | 213 kts | 237° |
| 2026-05-08 03:03 | 43.81443 | -79.39473 | 4255 ft | 215 kts | 230° |
| 2026-05-08 03:03 | 43.80417 | -79.40966 | 4024 ft | 215 kts | 230° |
| 2026-05-08 03:04 | 43.79389 | -79.42454 | 3779 ft | 213 kts | 230° |
| 2026-05-08 03:04 | 43.78365 | -79.43951 | 3590 ft | 213 kts | 230° |
| 2026-05-08 03:04 | 43.77381 | -79.45387 | 3438 ft | 208 kts | 230° |
| 2026-05-08 03:04 | 43.76391 | -79.46829 | 3199 ft | 200 kts | 229° |
| 2026-05-08 03:05 | 43.75458 | -79.48188 | 2902 ft | 193 kts | 229° |
| 2026-05-08 03:05 | 43.74558 | -79.49500 | 2628 ft | 180 kts | 229° |
| 2026-05-08 03:05 | 43.73768 | -79.50652 | 2416 ft | 171 kts | 229° |
| 2026-05-08 03:05 | 43.72958 | -79.51831 | 2150 ft | 164 kts | 229° |
| 2026-05-08 03:06 | 43.72190 | -79.52949 | 1937 ft | 154 kts | 228° |
| 2026-05-08 03:06 | 43.71492 | -79.53964 | 1731 ft | 140 kts | 228° |
| 2026-05-08 03:06 | 43.70843 | -79.54909 | 1549 ft | 135 kts | 228° |
| 2026-05-08 03:06 | 43.70188 | -79.55862 | 1361 ft | 135 kts | 228° |
| 2026-05-08 03:07 | 43.69540 | -79.56805 | 1167 ft | 134 kts | 228° |
| 2026-05-08 03:07 | 43.68916 | -79.57722 | 990 ft | 132 kts | 227° |
| 2026-05-08 03:07 | 43.68278 | -79.58643 | 815 ft | 131 kts | 227° |
| 2026-05-08 03:07 | 43.67653 | -79.59551 | 631 ft | 131 kts | 227° |
| 2026-05-08 03:08 | 43.67048 | -79.60429 | 546 ft | 107 kts | 226° |
| 2026-05-08 03:08 | 43.66702 | -79.60928 | 547 ft | 47 kts | 227° |
| 2026-05-08 03:08 | 43.66504 | -79.61220 | 546 ft | 37 kts | 231° |
| 2026-05-08 03:08 | 43.66410 | -79.61474 | 545 ft | 24 kts | 252° |
| 2026-05-08 03:09 | 43.66374 | -79.61666 | 544 ft | 12 kts | 280° |
| 2026-05-08 03:09 | 43.66416 | -79.61747 | 544 ft | 13 kts | 316° |
| 2026-05-08 03:09 | 43.66498 | -79.61854 | 545 ft | 16 kts | 316° |
| 2026-05-08 03:09 | 43.66573 | -79.61951 | 546 ft | 12 kts | 319° |
| 2026-05-08 03:10 | 43.66635 | -79.62020 | 547 ft | 10 kts | 347° |
| 2026-05-08 03:10 | 43.66710 | -79.61961 | 549 ft | 16 kts | 43° |
| 2026-05-08 03:10 | 43.66793 | -79.61855 | 551 ft | 15 kts | 43° |
| 2026-05-08 03:10 | 43.66883 | -79.61742 | 553 ft | 18 kts | 43° |
| 2026-05-08 03:11 | 43.66981 | -79.61620 | 555 ft | 18 kts | 43° |
| 2026-05-08 03:11 | 43.67072 | -79.61504 | 556 ft | 17 kts | 43° |
| 2026-05-08 03:11 | 43.67155 | -79.61398 | 557 ft | 15 kts | 43° |
| 2026-05-08 03:11 | 43.67222 | -79.61287 | 557 ft | 14 kts | 54° |
| 2026-05-08 03:12 | 43.67287 | -79.61276 | 559 ft | 9 kts | 319° |
| 2026-05-08 03:12 | 43.67343 | -79.61350 | 560 ft | 13 kts | 317° |
| 2026-05-08 03:12 | 43.67419 | -79.61449 | 562 ft | 15 kts | 317° |
| 2026-05-08 03:12 | 43.67495 | -79.61548 | 564 ft | 14 kts | 317° |
| 2026-05-08 03:13 | 43.67566 | -79.61642 | 566 ft | 13 kts | 317° |
| 2026-05-08 03:13 | 43.67641 | -79.61664 | 567 ft | 12 kts | 38° |
| 2026-05-08 03:13 | 43.67699 | -79.61585 | 567 ft | 11 kts | 47° |
| 2026-05-08 03:13 | 43.67751 | -79.61509 | 567 ft | 10 kts | 47° |
| 2026-05-08 03:14 | 43.67799 | -79.61439 | 568 ft | 9 kts | 47° |
| 2026-05-08 03:14 | 43.67793 | -79.61371 | 567 ft | 8 kts | 133° |
| 2026-05-08 03:14 | 43.67760 | -79.61328 | 567 ft | 0 kts | 137° |
| 2026-05-08 03:14 | 43.67760 | -79.61327 | 567 ft | 0 kts | 137° |